createdAt,value
2023-04-11T00:00:44.002Z,5.94
2023-04-11T00:02:35.555Z,5.94
2023-04-11T00:04:28.059Z,5.94
2023-04-11T00:06:19.535Z,5.94
2023-04-11T00:08:11.269Z,5.94
2023-04-11T00:10:03.191Z,5.92
2023-04-11T00:11:54.638Z,5.90
2023-04-11T00:13:47.750Z,5.89
2023-04-11T00:15:39.512Z,5.86
2023-04-11T00:17:31.864Z,5.86
2023-04-11T00:19:25.670Z,5.87
2023-04-11T00:21:17.687Z,5.88
2023-04-11T00:23:09.503Z,5.90
2023-04-11T00:25:01.343Z,5.91
2023-04-11T00:26:53.440Z,5.93
2023-04-11T00:28:44.859Z,5.94
2023-04-11T00:30:36.871Z,5.95
2023-04-11T00:32:28.414Z,5.96
2023-04-11T00:34:20.111Z,5.98
2023-04-11T00:36:12.152Z,5.99
2023-04-11T00:38:05.048Z,6.00
2023-04-11T00:39:56.604Z,6.00
2023-04-11T00:41:48.761Z,6.00
2023-04-11T00:43:40.601Z,6.00
2023-04-11T00:45:32.621Z,6.01
2023-04-11T00:47:24.429Z,6.01
2023-04-11T00:49:16.116Z,6.01
2023-04-11T00:51:07.860Z,6.01
2023-04-11T00:52:59.812Z,6.00
2023-04-11T00:54:51.828Z,6.00
2023-04-11T00:56:43.511Z,5.99
2023-04-11T00:58:37.507Z,5.99
2023-04-11T01:00:30.000Z,5.99
2023-04-11T01:02:21.898Z,5.98
2023-04-11T01:04:13.739Z,5.98
2023-04-11T01:06:07.055Z,5.98
2023-04-11T01:07:59.914Z,5.97
2023-04-11T01:09:52.480Z,5.95
2023-04-11T01:11:43.865Z,5.92
2023-04-11T01:13:38.222Z,5.90
2023-04-11T01:15:30.339Z,5.89
2023-04-11T01:17:22.118Z,5.88
2023-04-11T01:19:19.638Z,5.85
2023-04-11T01:21:11.564Z,5.83
2023-04-11T01:23:03.401Z,5.83
2023-04-11T01:24:55.018Z,5.81
2023-04-11T01:26:46.457Z,5.78
2023-04-11T01:28:38.133Z,5.78
2023-04-11T01:30:30.192Z,5.76
2023-04-11T01:32:21.942Z,5.73
2023-04-11T01:34:14.904Z,5.71
2023-04-11T01:36:07.809Z,5.68
2023-04-11T01:37:59.317Z,5.65
2023-04-11T01:39:51.385Z,5.62
2023-04-11T01:41:43.990Z,5.59
2023-04-11T01:43:35.811Z,5.57
2023-04-11T01:45:28.402Z,5.55
2023-04-11T01:47:19.945Z,5.53
2023-04-11T01:49:15.767Z,5.52
2023-04-11T01:51:07.556Z,5.51
2023-04-11T01:52:59.138Z,5.48
2023-04-11T01:54:50.527Z,5.46
2023-04-11T01:56:42.423Z,5.45
2023-04-11T01:58:36.636Z,5.44
2023-04-11T02:00:28.485Z,5.44
2023-04-11T02:02:20.207Z,5.42
2023-04-11T02:04:12.006Z,5.43
2023-04-11T02:06:04.098Z,5.42
2023-04-11T02:07:55.994Z,5.41
2023-04-11T02:09:47.476Z,5.41
2023-04-11T02:11:39.462Z,5.41
2023-04-11T02:13:31.012Z,5.41
2023-04-11T02:15:22.328Z,5.42
2023-04-11T02:17:14.191Z,5.42
2023-04-11T02:19:05.880Z,5.41
2023-04-11T02:20:57.149Z,5.41
2023-04-11T02:22:49.171Z,5.39
2023-04-11T02:24:40.963Z,5.38
2023-04-11T02:26:32.779Z,5.38
2023-04-11T02:28:24.555Z,5.37
2023-04-11T02:30:16.289Z,5.35
2023-04-11T02:32:08.318Z,5.34
2023-04-11T02:34:00.247Z,5.33
2023-04-11T02:35:52.231Z,5.32
2023-04-11T02:37:43.823Z,5.31
2023-04-11T02:39:35.761Z,5.29
2023-04-11T02:41:27.597Z,5.28
2023-04-11T02:43:19.213Z,5.27
2023-04-11T02:45:11.922Z,5.26
2023-04-11T02:47:03.782Z,5.25
2023-04-11T02:48:56.086Z,5.24
2023-04-11T02:50:48.222Z,5.24
2023-04-11T02:52:42.283Z,5.24
2023-04-11T02:54:34.003Z,5.23
2023-04-11T02:56:25.971Z,5.23
2023-04-11T02:58:20.162Z,5.23
2023-04-11T03:00:12.353Z,5.23
2023-04-11T03:02:04.359Z,5.23
2023-04-11T03:03:55.918Z,5.22
2023-04-11T03:05:47.683Z,5.22
2023-04-11T03:07:40.730Z,5.20
2023-04-11T03:09:32.416Z,5.20
2023-04-11T03:11:24.539Z,5.20
2023-04-11T03:13:16.170Z,5.19
2023-04-11T03:15:08.811Z,5.18
2023-04-11T03:17:00.202Z,5.19
2023-04-11T03:18:51.687Z,5.17
2023-04-11T03:20:43.619Z,5.16
2023-04-11T03:22:35.238Z,5.16
2023-04-11T03:24:26.991Z,5.15
2023-04-11T03:26:19.103Z,5.13
2023-04-11T03:28:11.360Z,5.12
2023-04-11T03:30:03.846Z,5.10
2023-04-11T03:31:55.649Z,5.07
2023-04-11T03:33:47.277Z,5.04
2023-04-11T03:35:39.080Z,5.03
2023-04-11T03:37:30.509Z,5.02
2023-04-11T03:39:22.480Z,5.02
2023-04-11T03:41:14.520Z,5.01
2023-04-11T03:43:06.500Z,5.01
2023-04-11T03:44:58.320Z,5.01
2023-04-11T03:46:50.243Z,5.00
2023-04-11T03:48:41.939Z,5.00
2023-04-11T03:50:33.520Z,4.98
2023-04-11T03:52:25.181Z,4.97
2023-04-11T03:54:18.208Z,4.97
2023-04-11T03:56:10.639Z,4.94
2023-04-11T03:58:02.444Z,4.92
2023-04-11T03:59:56.787Z,4.92
2023-04-11T04:01:48.544Z,4.90
2023-04-11T04:03:40.450Z,4.94
2023-04-11T04:05:32.638Z,4.95
2023-04-11T04:07:25.440Z,4.95
2023-04-11T04:09:17.185Z,4.96
2023-04-11T04:11:08.732Z,4.96
2023-04-11T04:13:00.151Z,4.97
2023-04-11T04:14:52.523Z,4.97
2023-04-11T04:16:44.683Z,4.96
2023-04-11T04:18:36.230Z,4.98
2023-04-11T04:20:27.966Z,4.99
2023-04-11T04:22:19.590Z,4.99
2023-04-11T04:24:12.335Z,5.00
2023-04-11T04:26:04.276Z,5.02
2023-04-11T04:27:58.303Z,5.03
2023-04-11T04:29:56.911Z,5.04
2023-04-11T04:31:57.093Z,5.05
2023-04-11T04:33:50.209Z,5.05
2023-04-11T04:35:42.128Z,5.06
2023-04-11T04:37:33.920Z,5.07
2023-04-11T04:39:25.571Z,5.07
2023-04-11T04:41:28.784Z,5.07
2023-04-11T04:43:23.080Z,5.08
2023-04-11T04:45:14.454Z,5.10
2023-04-11T04:47:06.015Z,5.11
2023-04-11T04:48:57.403Z,5.13
2023-04-11T04:50:48.844Z,5.15
2023-04-11T04:52:41.140Z,5.16
2023-04-11T04:54:32.985Z,5.18
2023-04-11T04:56:24.437Z,5.20
2023-04-11T04:58:16.297Z,5.22
2023-04-11T05:00:09.803Z,5.23
2023-04-11T05:02:01.401Z,5.24
2023-04-11T05:04:00.217Z,5.26
2023-04-11T05:05:52.255Z,5.27
2023-04-11T05:07:50.569Z,5.31
2023-04-11T05:09:42.448Z,5.35
2023-04-11T05:11:34.487Z,5.38
2023-04-11T05:13:25.955Z,5.42
2023-04-11T05:15:17.849Z,5.43
2023-04-11T05:17:10.091Z,5.45
2023-04-11T05:19:01.999Z,5.46
2023-04-11T05:20:53.639Z,5.47
2023-04-11T05:22:45.405Z,5.50
2023-04-11T05:24:37.493Z,5.49
2023-04-11T05:26:29.300Z,5.54
2023-04-11T05:28:21.465Z,5.57
2023-04-11T05:30:13.455Z,5.57
2023-04-11T05:32:05.037Z,5.60
2023-04-11T05:33:58.076Z,5.61
2023-04-11T05:35:51.312Z,5.63
2023-04-11T05:37:45.395Z,5.63
2023-04-11T05:39:37.257Z,5.68
2023-04-11T05:41:35.570Z,5.69
2023-04-11T05:43:27.157Z,5.72
2023-04-11T05:45:18.773Z,5.74
2023-04-11T05:47:11.921Z,5.77
2023-04-11T05:49:03.814Z,5.80
2023-04-11T05:50:56.762Z,5.83
2023-04-11T05:52:48.283Z,5.87
2023-04-11T05:54:40.308Z,5.89
2023-04-11T05:56:32.098Z,5.91
2023-04-11T05:58:24.784Z,5.95
2023-04-11T06:00:17.326Z,5.97
2023-04-11T06:02:09.177Z,5.99
2023-04-11T06:04:01.362Z,6.01
2023-04-11T06:05:54.446Z,6.04
2023-04-11T06:07:46.468Z,6.09
2023-04-11T06:09:39.466Z,6.10
2023-04-11T06:11:31.169Z,6.12
2023-04-11T06:13:22.582Z,6.14
2023-04-11T06:15:14.410Z,6.17
2023-04-11T06:17:06.128Z,6.19
2023-04-11T06:18:57.852Z,6.22
2023-04-11T06:20:49.936Z,6.25
2023-04-11T06:22:41.794Z,6.29
2023-04-11T06:24:40.725Z,6.33
2023-04-11T06:26:32.075Z,6.38
2023-04-11T06:28:23.697Z,6.41
2023-04-11T06:30:15.746Z,6.44
2023-04-11T06:32:08.343Z,6.46
2023-04-11T06:34:02.692Z,6.48
2023-04-11T06:35:54.696Z,6.50
2023-04-11T06:37:46.593Z,6.53
2023-04-11T06:39:38.409Z,6.56
2023-04-11T06:41:29.988Z,6.60
2023-04-11T06:43:22.365Z,6.62
2023-04-11T06:45:14.083Z,6.65
2023-04-11T06:47:05.607Z,6.68
2023-04-11T06:48:57.078Z,6.70
2023-04-11T06:50:48.732Z,6.73
2023-04-11T06:52:40.455Z,6.76
2023-04-11T06:54:32.373Z,6.78
2023-04-11T06:56:23.702Z,6.80
2023-04-11T06:58:16.439Z,6.83
2023-04-11T07:00:08.893Z,6.87
2023-04-11T07:02:00.802Z,6.90
2023-04-11T07:03:55.698Z,6.92
2023-04-11T07:05:47.639Z,6.97
2023-04-11T07:07:39.886Z,7.00
2023-04-11T07:09:32.047Z,7.02
2023-04-11T07:11:23.966Z,7.05
2023-04-11T07:13:15.910Z,7.08
2023-04-11T07:15:08.976Z,7.12
2023-04-11T07:17:01.505Z,7.17
2023-04-11T07:18:54.223Z,7.22
2023-04-11T07:20:46.442Z,7.28
2023-04-11T07:22:38.009Z,7.32
2023-04-11T07:24:30.643Z,7.35
2023-04-11T07:26:23.774Z,7.38
2023-04-11T07:28:15.541Z,7.42
2023-04-11T07:30:08.217Z,7.47
2023-04-11T07:31:59.942Z,7.50
2023-04-11T07:33:52.041Z,7.53
2023-04-11T07:35:43.935Z,7.54
2023-04-11T07:37:35.668Z,7.55
2023-04-11T07:39:27.789Z,7.58
2023-04-11T07:41:19.636Z,7.62
2023-04-11T07:43:11.506Z,7.66
2023-04-11T07:45:03.222Z,7.73
2023-04-11T07:46:54.619Z,7.78
2023-04-11T07:48:46.631Z,7.85
2023-04-11T07:50:38.461Z,7.92
2023-04-11T07:52:30.163Z,7.98
2023-04-11T07:54:21.828Z,8.05
2023-04-11T07:56:15.160Z,8.16
2023-04-11T07:58:07.372Z,8.21
2023-04-11T07:59:59.652Z,8.27
2023-04-11T08:02:05.024Z,8.33
2023-04-11T08:03:57.365Z,8.40
2023-04-11T08:05:49.813Z,8.43
2023-04-11T08:07:42.075Z,8.51
2023-04-11T08:09:34.423Z,8.54
2023-04-11T08:11:25.999Z,8.58
2023-04-11T08:13:17.658Z,8.64
2023-04-11T08:15:10.717Z,8.70
2023-04-11T08:17:02.698Z,8.80
2023-04-11T08:18:54.220Z,8.86
2023-04-11T08:20:45.837Z,8.95
2023-04-11T08:22:58.897Z,9.04
2023-04-11T08:24:52.853Z,9.13
2023-04-11T08:26:44.666Z,9.24
2023-04-11T08:28:36.314Z,9.36
2023-04-11T08:30:27.928Z,9.44
2023-04-11T08:32:19.697Z,9.54
2023-04-11T08:34:12.505Z,9.65
2023-04-11T08:36:05.434Z,9.72
2023-04-11T08:37:56.945Z,9.81
2023-04-11T08:39:48.855Z,9.90
2023-04-11T08:41:40.584Z,10.02
2023-04-11T08:43:36.701Z,10.11
2023-04-11T08:45:29.158Z,10.23
2023-04-11T08:47:21.838Z,10.27
2023-04-11T08:49:13.439Z,10.34
2023-04-11T08:51:06.088Z,10.37
2023-04-11T08:53:03.824Z,10.51
2023-04-11T08:54:55.394Z,10.67
2023-04-11T08:56:48.106Z,10.90
2023-04-11T08:58:40.449Z,11.09
2023-04-11T09:00:33.132Z,11.21
2023-04-11T09:02:25.161Z,11.39
2023-04-11T09:04:16.898Z,11.58
2023-04-11T09:06:11.679Z,11.70
2023-04-11T09:08:08.408Z,11.76
2023-04-11T09:10:18.096Z,11.78
2023-04-11T09:12:09.847Z,11.92
2023-04-11T09:14:06.884Z,11.94
2023-04-11T09:16:14.650Z,12.08
2023-04-11T09:18:06.175Z,12.11
2023-04-11T09:20:16.939Z,12.03
2023-04-11T09:22:09.096Z,12.07
2023-04-11T09:24:15.406Z,12.07
2023-04-11T09:26:08.382Z,12.13
2023-04-11T09:28:10.442Z,12.18
2023-04-11T09:30:02.272Z,12.26
2023-04-11T09:31:54.068Z,12.35
2023-04-11T09:34:03.430Z,12.33
2023-04-11T09:35:56.788Z,12.31
2023-04-11T09:37:50.905Z,12.26
2023-04-11T09:39:43.828Z,12.26
2023-04-11T09:41:36.271Z,12.34
2023-04-11T09:43:28.289Z,12.45
2023-04-11T09:45:21.900Z,12.50
2023-04-11T09:47:13.721Z,12.52
2023-04-11T09:49:05.565Z,12.54
2023-04-11T09:50:58.817Z,12.62
2023-04-11T09:52:52.881Z,12.67
2023-04-11T09:54:45.024Z,12.73
2023-04-11T09:56:36.714Z,12.76
2023-04-11T09:58:31.458Z,12.78
2023-04-11T10:00:30.240Z,12.82
2023-04-11T10:02:22.090Z,12.94
2023-04-11T10:04:14.505Z,13.04
2023-04-11T10:06:14.299Z,13.13
2023-04-11T10:08:12.451Z,13.09
2023-04-11T10:10:04.377Z,13.03
2023-04-11T10:11:55.853Z,13.05
2023-04-11T10:13:49.477Z,13.07
2023-04-11T10:16:16.406Z,13.04
2023-04-11T10:18:10.289Z,13.01
2023-04-11T10:20:01.751Z,13.04
2023-04-11T10:21:53.294Z,12.97
2023-04-11T10:24:17.130Z,12.91
2023-04-11T10:26:10.055Z,12.82
2023-04-11T10:28:03.978Z,12.80
2023-04-11T10:29:55.874Z,12.79
2023-04-11T10:32:17.526Z,12.76
2023-04-11T10:34:14.500Z,12.75
2023-04-11T10:36:10.248Z,12.68
2023-04-11T10:38:02.557Z,12.61
2023-04-11T10:39:54.524Z,12.58
2023-04-11T10:41:46.429Z,12.55
2023-04-11T10:43:39.229Z,12.49
2023-04-11T10:45:30.995Z,12.42
2023-04-11T10:47:26.168Z,12.34
2023-04-11T10:49:35.074Z,12.25
2023-04-11T10:51:27.849Z,12.12
2023-04-11T10:53:37.068Z,11.98
2023-04-11T11:20:20.179Z,10.39
2023-04-11T11:22:29.904Z,10.08
2023-04-11T11:24:27.391Z,9.80
2023-04-11T11:26:18.848Z,9.60
2023-04-11T11:28:10.581Z,9.48
2023-04-11T11:30:11.809Z,9.37
2023-04-11T11:32:04.736Z,9.24
2023-04-11T11:34:04.695Z,9.14
2023-04-11T11:36:05.820Z,9.01
2023-04-11T11:37:57.370Z,8.86
2023-04-11T11:39:50.046Z,8.71
2023-04-11T11:41:41.709Z,8.63
2023-04-11T11:43:37.096Z,8.55
2023-04-11T11:45:28.744Z,8.50
2023-04-11T11:47:19.860Z,8.47
2023-04-11T11:49:11.333Z,8.46
2023-04-11T11:51:02.696Z,8.44
2023-04-11T11:52:54.688Z,8.40
2023-04-11T11:54:47.397Z,8.36
2023-04-11T11:56:40.036Z,8.32
2023-04-11T11:58:34.224Z,8.28
2023-04-11T12:00:27.574Z,8.21
2023-04-11T12:02:19.070Z,8.13
2023-04-11T12:04:13.218Z,8.11
2023-04-11T12:06:09.157Z,8.09
2023-04-11T12:08:04.676Z,8.06
2023-04-11T12:10:06.446Z,8.04
2023-04-11T12:11:57.914Z,8.00
2023-04-11T12:13:53.291Z,7.98
2023-04-11T12:15:49.080Z,7.94
2023-04-11T12:17:41.469Z,7.92
2023-04-11T12:19:33.441Z,7.91
2023-04-11T12:21:25.368Z,7.91
2023-04-11T12:23:17.691Z,7.93
2023-04-11T12:25:11.848Z,7.93
2023-04-11T12:27:07.451Z,7.97
2023-04-11T12:29:02.193Z,7.99
2023-04-11T12:30:53.747Z,8.03
2023-04-11T12:32:45.586Z,8.05
2023-04-11T12:34:37.153Z,8.06
2023-04-11T12:36:29.669Z,8.09
2023-04-11T12:38:21.323Z,8.13
2023-04-11T12:40:13.375Z,8.21
2023-04-11T12:42:04.984Z,8.34
2023-04-11T12:43:56.577Z,8.46
2023-04-11T12:45:48.673Z,8.58
2023-04-11T12:47:41.073Z,8.66
2023-04-11T12:49:32.867Z,8.75
2023-04-11T12:51:24.544Z,8.83
2023-04-11T12:53:15.835Z,8.87
2023-04-11T12:55:08.803Z,8.93
2023-04-11T12:57:00.520Z,9.00
2023-04-11T12:58:52.363Z,9.11
2023-04-11T13:00:43.978Z,9.18
2023-04-11T13:02:43.260Z,9.28
2023-04-11T13:04:36.551Z,9.42
2023-04-11T13:06:28.826Z,9.57
2023-04-11T13:08:21.387Z,9.71
2023-04-11T13:10:16.692Z,9.84
2023-04-11T13:12:08.216Z,9.97
2023-04-11T13:13:59.857Z,10.10
2023-04-11T13:15:51.778Z,10.23
2023-04-11T13:17:43.840Z,10.33
2023-04-11T13:19:35.556Z,10.40
2023-04-11T13:21:27.020Z,10.48
2023-04-11T13:23:19.818Z,10.51
2023-04-11T13:25:12.470Z,10.56
2023-04-11T13:27:04.293Z,10.61
2023-04-11T13:28:56.324Z,10.70
2023-04-11T13:30:48.020Z,10.78
2023-04-11T13:32:39.448Z,10.82
2023-04-11T13:34:31.479Z,10.77
2023-04-11T13:36:23.440Z,10.60
2023-04-11T13:38:15.246Z,10.47
2023-04-11T13:40:08.713Z,10.36
2023-04-11T13:42:00.672Z,10.21
2023-04-11T13:43:52.948Z,10.05
2023-04-11T13:45:44.555Z,10.00
2023-04-11T13:47:38.420Z,10.01
2023-04-11T13:49:30.619Z,10.01
2023-04-11T13:51:21.965Z,10.00
2023-04-11T13:53:13.853Z,9.96
2023-04-11T13:55:06.350Z,9.89
2023-04-11T13:56:59.221Z,9.79
2023-04-11T13:58:51.666Z,9.73
2023-04-11T14:00:46.976Z,9.72
2023-04-11T14:02:40.273Z,9.68
2023-04-11T14:04:32.577Z,9.66
2023-04-11T14:06:24.336Z,9.65
2023-04-11T14:08:16.093Z,9.64
2023-04-11T14:10:08.083Z,9.68
2023-04-11T14:12:00.036Z,9.73
2023-04-11T14:13:51.584Z,9.72
2023-04-11T14:15:42.886Z,9.69
2023-04-11T14:17:34.760Z,9.69
2023-04-11T14:19:26.583Z,9.71
2023-04-11T14:21:18.086Z,9.76
2023-04-11T14:23:10.823Z,9.78
2023-04-11T14:25:02.334Z,9.80
2023-04-11T14:26:54.032Z,9.81
2023-04-11T14:28:45.874Z,9.84
2023-04-11T14:30:37.800Z,9.80
2023-04-11T14:32:29.515Z,9.80
2023-04-11T14:34:21.176Z,9.82
2023-04-11T14:36:12.721Z,9.85
2023-04-11T14:38:04.640Z,9.84
2023-04-11T14:39:55.824Z,9.83
2023-04-11T14:41:48.107Z,9.78
2023-04-11T14:43:39.660Z,9.74
2023-04-11T14:45:30.984Z,9.76
2023-04-11T14:47:22.996Z,9.78
2023-04-11T14:49:15.483Z,9.83
2023-04-11T14:51:07.427Z,9.88
2023-04-11T14:52:59.287Z,9.89
2023-04-11T14:54:51.124Z,9.93
2023-04-11T14:56:42.911Z,9.96
2023-04-11T14:58:34.839Z,10.01
2023-04-11T15:00:26.973Z,10.07
2023-04-11T15:02:19.030Z,10.13
2023-04-11T15:04:11.063Z,10.20
2023-04-11T15:06:02.863Z,10.26
2023-04-11T15:07:54.698Z,10.26
2023-04-11T15:09:47.102Z,10.28
2023-04-11T15:11:38.496Z,10.30
2023-04-11T15:13:30.567Z,10.32
2023-04-11T15:15:22.598Z,10.33
2023-04-11T15:17:14.411Z,10.40
2023-04-11T15:19:06.430Z,10.45
2023-04-11T15:21:03.306Z,10.48
2023-04-11T15:22:55.292Z,10.47
2023-04-11T15:24:47.349Z,10.40
2023-04-11T15:26:42.977Z,10.26
2023-04-11T15:28:38.922Z,10.00
2023-04-11T15:30:30.654Z,9.74
2023-04-11T15:32:22.196Z,9.49
2023-04-11T15:34:16.861Z,9.33
2023-04-11T15:36:08.912Z,9.23
2023-04-11T15:38:00.613Z,9.16
2023-04-11T15:39:52.750Z,9.14
2023-04-11T15:41:44.029Z,9.17
2023-04-11T15:43:35.778Z,9.15
2023-04-11T15:45:27.392Z,9.16
2023-04-11T15:47:19.000Z,9.20
2023-04-11T15:49:10.576Z,9.26
2023-04-11T15:51:09.079Z,9.29
2023-04-11T15:53:01.048Z,9.34
2023-04-11T15:54:52.921Z,9.40
2023-04-11T15:56:44.537Z,9.45
2023-04-11T15:58:36.794Z,9.55
2023-04-11T16:00:28.607Z,9.60
2023-04-11T16:02:20.717Z,9.71
2023-04-11T16:04:12.822Z,9.83
2023-04-11T16:06:05.907Z,10.02
2023-04-11T16:07:58.803Z,10.19
2023-04-11T16:09:50.521Z,10.32
2023-04-11T16:11:44.690Z,10.45
2023-04-11T16:13:36.431Z,10.59
2023-04-11T16:15:28.295Z,10.68
2023-04-11T16:17:20.619Z,10.68
2023-04-11T16:19:12.333Z,10.63
2023-04-11T16:21:04.423Z,10.58
2023-04-11T16:22:56.080Z,10.60
2023-04-11T16:24:47.717Z,10.63
2023-04-11T16:26:39.130Z,10.60
2023-04-11T16:28:30.709Z,10.62
2023-04-11T16:30:22.281Z,10.72
2023-04-11T16:32:14.026Z,10.86
2023-04-11T16:34:05.819Z,10.97
2023-04-11T16:35:57.671Z,10.82
2023-04-11T16:37:49.402Z,10.64
2023-04-11T16:39:40.997Z,10.45
2023-04-11T16:45:00.758Z,10.06
2023-04-11T16:46:52.119Z,9.96
2023-04-11T16:48:43.939Z,9.87
2023-04-11T16:50:36.267Z,9.74
2023-04-11T16:52:28.334Z,9.65
2023-04-11T16:54:20.129Z,9.52
2023-04-11T16:56:15.067Z,9.40
2023-04-11T16:58:08.892Z,9.27
2023-04-11T17:00:01.065Z,9.16
2023-04-11T17:02:01.550Z,9.04
2023-04-11T17:04:09.735Z,8.92
2023-04-11T17:06:02.663Z,8.83
2023-04-11T17:07:54.509Z,8.74
2023-04-11T17:09:47.616Z,8.66
2023-04-11T17:11:39.941Z,8.58
2023-04-11T17:13:31.405Z,8.48
2023-04-11T17:15:23.317Z,8.40
2023-04-11T17:17:15.616Z,8.31
2023-04-11T17:19:07.748Z,8.23
2023-04-11T17:20:59.756Z,8.13
2023-04-11T17:22:51.683Z,8.05
2023-04-11T17:24:43.763Z,7.97
2023-04-11T17:26:36.227Z,7.88
2023-04-11T17:28:32.176Z,7.79
2023-04-11T17:30:23.988Z,7.74
2023-04-11T17:32:16.137Z,7.67
2023-04-11T17:34:08.143Z,7.60
2023-04-11T17:36:00.709Z,7.54
2023-04-11T17:37:52.477Z,7.49
2023-04-11T17:39:46.423Z,7.45
2023-04-11T17:41:37.667Z,7.39
2023-04-11T17:43:29.872Z,7.35
2023-04-11T17:45:22.445Z,7.33
2023-04-11T17:47:14.216Z,7.31
2023-04-11T17:49:06.464Z,7.30
2023-04-11T17:50:59.930Z,7.30
2023-04-11T17:52:52.257Z,7.32
2023-04-11T17:54:44.204Z,7.32
2023-04-11T17:56:36.557Z,7.34
2023-04-11T17:58:28.627Z,7.35
2023-04-11T18:00:22.964Z,7.33
2023-04-11T18:02:15.369Z,7.32
2023-04-11T18:04:09.582Z,7.26
2023-04-11T18:06:01.484Z,7.23
2023-04-11T18:08:02.638Z,7.19
2023-04-11T18:09:54.560Z,7.14
2023-04-11T18:11:46.462Z,7.08
2023-04-11T18:13:38.424Z,7.04
2023-04-11T18:15:36.598Z,7.00
2023-04-11T18:17:30.684Z,6.94
2023-04-11T18:19:27.492Z,6.90
2023-04-11T18:21:23.900Z,6.85
2023-04-11T18:23:16.089Z,6.79
2023-04-11T18:25:12.201Z,6.76
2023-04-11T18:27:03.987Z,6.72
2023-04-11T18:28:55.966Z,6.69
2023-04-11T18:30:47.703Z,6.66
2023-04-11T18:32:45.060Z,6.65
2023-04-11T18:34:40.832Z,6.63
2023-04-11T18:36:32.961Z,6.61
2023-04-11T18:38:25.725Z,6.60
2023-04-11T18:40:18.248Z,6.58
2023-04-11T18:42:10.842Z,6.57
2023-04-11T18:44:03.518Z,6.55
2023-04-11T18:45:57.611Z,6.52
2023-04-11T18:47:51.147Z,6.50
2023-04-11T18:49:43.472Z,6.49
2023-04-11T18:51:35.971Z,6.47
2023-04-11T18:53:30.277Z,6.44
2023-04-11T18:55:22.712Z,6.43
2023-04-11T18:57:15.786Z,6.42
2023-04-11T18:59:09.969Z,6.41
2023-04-11T19:01:14.621Z,6.39
2023-04-11T19:03:16.117Z,6.35
2023-04-11T19:05:13.720Z,6.32
2023-04-11T19:07:06.101Z,6.27
2023-04-11T19:08:57.749Z,6.23
2023-04-11T19:10:52.258Z,6.19
2023-04-11T19:12:46.022Z,6.15
2023-04-11T19:14:37.767Z,6.10
2023-04-11T19:16:30.705Z,6.05
2023-04-11T19:18:22.830Z,6.00
2023-04-11T19:20:15.984Z,5.95
2023-04-11T19:22:07.637Z,5.92
2023-04-11T19:24:00.121Z,5.89
2023-04-11T19:25:52.365Z,5.86
2023-04-11T19:28:04.351Z,5.83
2023-04-11T19:29:57.732Z,5.77
2023-04-11T19:31:51.671Z,5.73
2023-04-11T19:33:43.405Z,5.70
2023-04-11T19:35:55.302Z,5.65
2023-04-11T19:37:47.191Z,5.63
2023-04-11T19:39:39.291Z,5.58
2023-04-11T19:41:31.376Z,5.54
2023-04-11T19:43:23.394Z,5.49
2023-04-11T19:45:15.134Z,5.44
2023-04-11T19:47:06.899Z,5.39
2023-04-11T19:48:58.426Z,5.34
2023-04-11T19:50:51.851Z,5.29
2023-04-11T19:52:43.914Z,5.25
2023-04-11T19:54:37.141Z,5.21
2023-04-11T19:56:28.771Z,5.15
2023-04-11T19:58:21.444Z,5.11
2023-04-11T20:00:14.446Z,5.05
2023-04-11T20:02:06.225Z,5.01
2023-04-11T20:03:58.343Z,4.96
2023-04-11T20:05:50.223Z,4.91
2023-04-11T20:07:44.064Z,4.88
2023-04-11T20:09:36.772Z,4.84
2023-04-11T20:11:29.251Z,4.81
2023-04-11T20:13:21.543Z,4.77
2023-04-11T20:15:13.256Z,4.74
2023-04-11T20:17:06.161Z,4.69
2023-04-11T20:18:57.767Z,4.66
2023-04-11T20:20:49.652Z,4.62
2023-04-11T20:22:41.235Z,4.59
2023-04-11T20:24:33.490Z,4.57
2023-04-11T20:26:24.953Z,4.54
2023-04-11T20:28:16.953Z,4.52
2023-04-11T20:30:12.245Z,4.50
2023-04-11T20:32:03.661Z,4.47
2023-04-11T20:33:55.654Z,4.46
2023-04-11T20:35:47.735Z,4.44
2023-04-11T20:37:40.337Z,4.42
2023-04-11T20:39:32.467Z,4.40
2023-04-11T20:41:24.566Z,4.38
2023-04-11T20:43:17.643Z,4.37
2023-04-11T20:45:13.608Z,4.36
2023-04-11T20:47:05.155Z,4.33
2023-04-11T20:48:57.000Z,4.32
2023-04-11T20:50:48.533Z,4.30
2023-04-11T20:52:41.941Z,4.29
2023-04-11T20:54:33.529Z,4.26
2023-04-11T20:56:25.381Z,4.25
2023-04-11T20:58:20.833Z,4.23
2023-04-11T21:00:14.457Z,4.22
2023-04-11T21:02:07.371Z,4.20
2023-04-11T21:04:03.467Z,4.17
2023-04-11T21:05:55.424Z,4.13
2023-04-11T21:07:47.417Z,4.12
2023-04-11T21:09:39.088Z,4.09
2023-04-11T21:11:30.988Z,4.06
2023-04-11T21:13:22.177Z,4.05
2023-04-11T21:15:13.786Z,4.03
2023-04-11T21:17:07.863Z,4.00
2023-04-11T21:18:58.960Z,4.01
2023-04-11T21:20:50.673Z,4.00
2023-04-11T21:22:42.135Z,3.99
2023-04-11T21:24:34.931Z,3.97
2023-04-11T21:26:26.236Z,3.95
2023-04-11T21:28:17.227Z,3.93
2023-04-11T21:30:09.643Z,3.92
2023-04-11T21:32:01.435Z,3.90
2023-04-11T21:33:53.230Z,3.89
2023-04-11T21:35:45.110Z,3.89
2023-04-11T21:37:36.648Z,3.89
2023-04-11T21:39:28.212Z,3.88
2023-04-11T21:41:19.884Z,3.87
2023-04-11T21:43:11.497Z,3.84
2023-04-11T21:45:03.002Z,3.86
2023-04-11T21:46:54.243Z,3.86
2023-04-11T21:48:45.680Z,3.84
2023-04-11T21:50:37.457Z,3.84
2023-04-11T21:52:29.016Z,3.82
2023-04-11T21:54:20.107Z,3.81
2023-04-11T21:56:11.328Z,3.80
2023-04-11T21:58:02.729Z,3.78
2023-04-11T21:59:53.873Z,3.77
2023-04-11T22:01:47.994Z,3.77
2023-04-11T22:03:42.719Z,3.76
2023-04-11T22:05:34.045Z,3.75
2023-04-11T22:07:25.257Z,3.74
2023-04-11T22:09:19.017Z,3.72
2023-04-11T22:11:14.089Z,3.70
2023-04-11T22:13:05.624Z,3.67
2023-04-11T22:14:57.161Z,3.66
2023-04-11T22:16:49.307Z,3.65
2023-04-11T22:18:47.120Z,3.64
2023-04-11T22:20:40.652Z,3.62
2023-04-11T22:22:32.336Z,3.59
2023-04-11T22:24:30.258Z,3.59
2023-04-11T22:26:34.254Z,3.58
2023-04-11T22:28:26.287Z,3.57
2023-04-11T22:30:17.727Z,3.56
2023-04-11T22:32:09.137Z,3.56
2023-04-11T22:34:03.967Z,3.56
2023-04-11T22:35:58.321Z,3.56
2023-04-11T22:37:50.238Z,3.56
2023-04-11T22:39:41.792Z,3.55
2023-04-11T22:41:34.053Z,3.55
2023-04-11T22:43:25.669Z,3.55
2023-04-11T22:45:17.246Z,3.53
2023-04-11T22:47:29.675Z,3.52
2023-04-11T22:50:38.982Z,3.51
2023-04-11T22:52:30.890Z,3.47
2023-04-11T22:54:22.563Z,3.47
2023-04-11T22:56:14.330Z,3.45
2023-04-11T22:58:05.943Z,3.42
2023-04-11T22:59:58.600Z,3.39
2023-04-11T23:01:51.358Z,3.37
2023-04-11T23:03:44.144Z,3.35
2023-04-11T23:05:42.446Z,3.32
2023-04-11T23:07:34.532Z,3.31
2023-04-11T23:09:26.591Z,3.28
2023-04-11T23:11:18.453Z,3.25
2023-04-11T23:13:10.186Z,3.23
2023-04-11T23:15:03.428Z,3.20
2023-04-11T23:16:54.807Z,3.19
2023-04-11T23:18:46.664Z,3.16
2023-04-11T23:20:38.387Z,3.14
2023-04-11T23:22:30.215Z,3.13
2023-04-11T23:24:22.098Z,3.10
2023-04-11T23:26:24.437Z,3.06
2023-04-11T23:28:15.955Z,3.05
2023-04-11T23:30:08.110Z,3.02
2023-04-11T23:32:00.033Z,3.00
2023-04-11T23:33:51.399Z,2.99
2023-04-11T23:35:43.110Z,2.97
2023-04-11T23:37:34.748Z,2.95
2023-04-11T23:39:26.966Z,2.94
2023-04-11T23:41:20.341Z,2.92
2023-04-11T23:43:11.703Z,2.91
2023-04-11T23:45:05.957Z,2.89
2023-04-11T23:46:59.983Z,2.87
2023-04-11T23:48:53.522Z,2.82
2023-04-11T23:50:45.036Z,2.83
2023-04-11T23:52:36.804Z,2.82
2023-04-11T23:54:30.499Z,2.80
2023-04-11T23:56:23.232Z,2.78
2023-04-11T23:58:14.847Z,2.76
